< Cyclone 199404 1994 Season Cyclone 199406 >
Cyclone 199405 (QUENTON)
General InformationTrack Information on Google MapsDetailed Wind InformationList of All Images || ResourceGoogle EarthGE AnimationAtom FeedGeoJSON
Detalied Best Track (Time Zone = UTC)
Year Month Day Hour Lat. Long. Pressure (hPa) Wind (kt) Class Image Chart
1994 1 23 00 -10.4 110.2 1005 19 2 Image --
1994 1 24 00 -12.0 108.8 1002 23 2 Image --
1994 1 24 12 -12.7 107.5 1000 27 2 Image --
1994 1 25 00 -12.7 106.6 995 35 3 Image --
1994 1 25 06 -12.8 106.6 990 41 3 Image --
1994 1 25 12 -12.9 106.6 985 47 3 Image --
1994 1 25 15 -13.2 106.5 980 54 4 Image --
1994 1 25 18 -13.6 106.5 975 60 4 Image --
1994 1 25 21 -13.9 106.5 970 66 5 Image --
1994 1 26 00 -14.3 106.4 965 70 5 Image --
1994 1 26 03 -14.6 106.2 965 70 5 Image --
1994 1 26 06 -15.0 105.9 960 76 5 Image --
1994 1 26 09 -15.5 105.6 955 80 5 Image --
1994 1 26 12 -16.0 105.1 955 80 5 Image --
1994 1 26 15 -16.5 104.6 960 76 5 Image --
1994 1 26 18 -16.9 104.2 965 70 5 Image --
1994 1 26 21 -17.3 103.8 970 66 5 Image --
1994 1 27 00 -17.7 103.3 975 60 4 Image --
1994 1 27 03 -18.0 102.9 980 54 4 Image --
1994 1 27 06 -18.3 102.5 985 47 3 Image --
1994 1 27 09 -18.5 102.0 990 41 3 Image --
1994 1 27 12 -18.8 101.5 990 41 3 Image --
1994 1 27 15 -19.1 101.0 995 35 3 Image --
1994 1 27 18 -19.5 100.4 1000 27 2 Image --
1994 1 27 21 -19.9 99.7 1000 27 2 Image --
1994 1 28 00 -20.2 99.1 1005 19 2 Image --
1994 1 28 12 -21.1 96.9 1010 0 0 Image --
< Cyclone 199404 1994 Season Cyclone 199406 >

Help